createdAt,value
2019-02-15T05:00:25.784Z,3.777771
2019-02-15T05:03:53.680Z,3.666992
2019-02-15T05:07:21.580Z,3.656921
2019-02-15T05:10:49.499Z,3.626709
2019-02-15T05:14:17.410Z,3.586426
2019-02-15T05:17:45.294Z,3.556213
2019-02-15T05:21:13.199Z,3.586426
2019-02-15T05:24:41.108Z,3.586426
2019-02-15T05:28:09.106Z,3.616638
2019-02-15T05:31:36.897Z,3.626709
2019-02-15T05:35:05.793Z,3.63678
2019-02-15T05:38:33.679Z,3.666992
2019-02-15T05:42:03.566Z,3.666992
2019-02-15T05:45:31.473Z,3.666992
2019-02-15T05:49:00.352Z,3.616638
2019-02-15T05:52:28.261Z,3.546143
2019-02-15T05:55:57.163Z,3.505859
2019-02-15T05:59:25.072Z,3.51593
2019-02-15T06:02:52.968Z,3.475647
2019-02-15T06:06:20.879Z,3.334656
2019-02-15T06:09:48.813Z,3.274231
2019-02-15T06:13:16.736Z,3.254089
2019-02-15T06:16:44.593Z,3.233948
2019-02-15T06:20:12.508Z,3.223877
2019-02-15T06:23:40.392Z,3.153381
2019-02-15T06:27:08.294Z,3.173523
2019-02-15T06:30:36.194Z,3.153381
2019-02-15T06:34:04.076Z,3.123169
2019-02-15T06:37:32.076Z,3.123169
2019-02-15T06:40:59.987Z,3.113098
2019-02-15T06:44:27.902Z,3.143311
2019-02-15T06:47:55.786Z,3.143311
2019-02-15T06:51:23.683Z,3.223877
2019-02-15T06:54:51.831Z,3.223877
2019-02-15T06:58:19.724Z,3.223877
2019-02-15T07:01:47.638Z,3.223877
2019-02-15T07:05:15.542Z,3.173523
2019-02-15T07:08:43.429Z,3.153381
2019-02-15T07:12:11.325Z,3.113098
2019-02-15T07:15:39.227Z,3.052673
2019-02-15T07:19:07.120Z,3.072815
2019-02-15T07:22:35.024Z,3.092957
2019-02-15T07:26:02.938Z,3.143311
2019-02-15T07:29:30.825Z,3.203735
2019-02-15T07:32:58.732Z,3.26416
2019-02-15T07:36:26.634Z,3.203735
2019-02-15T07:39:55.521Z,3.183594
2019-02-15T07:43:23.405Z,3.143311
2019-02-15T07:46:51.306Z,3.233948
2019-02-15T07:50:19.219Z,3.233948
2019-02-15T07:53:47.102Z,3.294373
2019-02-15T07:57:15.009Z,3.364868
2019-02-15T08:00:42.922Z,3.374939
2019-02-15T08:04:10.808Z,3.415222
2019-02-15T08:07:38.708Z,3.475647
2019-02-15T08:11:06.615Z,3.505859
2019-02-15T08:14:34.512Z,3.546143
2019-02-15T08:18:02.406Z,3.63678
2019-02-15T08:21:30.320Z,3.687134
2019-02-15T08:24:58.210Z,3.717346
2019-02-15T08:28:27.101Z,3.717346
2019-02-15T08:31:55.022Z,3.777771
2019-02-15T08:35:23.902Z,3.838196
2019-02-15T08:38:51.822Z,3.868408
2019-02-15T08:42:19.732Z,3.989258
2019-02-15T08:45:48.607Z,4.029541
2019-02-15T08:49:20.478Z,4.120178
2019-02-15T08:52:48.387Z,4.180603
2019-02-15T08:56:17.283Z,4.230957
2019-02-15T08:59:45.254Z,4.382019
2019-02-15T09:03:13.153Z,4.462585
2019-02-15T09:06:42.095Z,4.432373
2019-02-15T09:10:10.975Z,4.462585
2019-02-15T09:13:38.883Z,4.351807
2019-02-15T09:17:06.777Z,4.281311
2019-02-15T09:20:34.686Z,4.412231
2019-02-15T09:24:02.581Z,4.432373
2019-02-15T09:27:30.804Z,4.412231
2019-02-15T09:30:58.906Z,4.512939
2019-02-15T09:34:26.810Z,4.462585
2019-02-15T09:37:55.710Z,4.563293
2019-02-15T09:41:23.643Z,4.674072
2019-02-15T09:44:51.554Z,4.845276
2019-02-15T09:48:19.583Z,5.006409
2019-02-15T09:51:47.613Z,5.157471
2019-02-15T09:55:16.526Z,5.328674
2019-02-15T09:58:45.396Z,5.479736
2019-02-15T10:02:14.304Z,5.671082
2019-02-15T10:05:42.212Z,5.822144
2019-02-15T10:09:10.113Z,6.03363
2019-02-15T10:12:38.028Z,6.567383
2019-02-15T10:16:06.933Z,7.423401
2019-02-15T10:19:34.830Z,7.906799
2019-02-15T10:23:02.758Z,7.91687
2019-02-15T10:26:30.653Z,8.088074
2019-02-15T10:29:58.717Z,8.138428
2019-02-15T10:33:27.609Z,7.957153
2019-02-15T10:36:55.504Z,7.906799
2019-02-15T10:40:23.414Z,8.118286
2019-02-15T10:43:51.329Z,9.085083
2019-02-15T10:47:24.845Z,10.142517
2019-02-15T10:50:50.138Z,11.280518
2019-02-15T10:54:19.118Z,12.126465
2019-02-15T10:57:47.036Z,12.630005
2019-02-15T11:01:14.937Z,13.113403
2019-02-15T11:04:42.854Z,12.760925
2019-02-15T11:08:10.769Z,12.076111
2019-02-15T11:11:38.695Z,11.703491
2019-02-15T11:15:06.601Z,11.914978
2019-02-15T11:18:35.510Z,11.733704
2019-02-15T11:22:04.423Z,11.894836
2019-02-15T11:25:32.349Z,12.207031
2019-02-15T11:29:00.256Z,12.609863
2019-02-15T11:32:29.145Z,13.093262
2019-02-15T11:35:57.077Z,13.757935
2019-02-15T11:39:25.001Z,13.747864
2019-02-15T11:42:52.932Z,13.788147
2019-02-15T11:46:21.871Z,13.627014
2019-02-15T11:49:49.768Z,13.465881
2019-02-15T11:53:17.704Z,13.274536
2019-02-15T11:56:45.617Z,13.022766
2019-02-15T12:00:14.409Z,13.083191
2019-02-15T12:03:46.417Z,13.214111
2019-02-15T12:07:14.355Z,13.395386
2019-02-15T12:10:43.275Z,13.546448
2019-02-15T12:14:11.257Z,13.375244
2019-02-15T12:17:39.223Z,13.32489
2019-02-15T12:21:07.122Z,12.982483
2019-02-15T12:24:35.046Z,12.962341
2019-02-15T12:28:03.970Z,12.791138
2019-02-15T12:31:31.888Z,12.801208
2019-02-15T12:34:59.844Z,12.962341
2019-02-15T12:38:27.768Z,13.143616
2019-02-15T12:41:56.672Z,13.012695
2019-02-15T12:45:24.600Z,12.962341
2019-02-15T12:48:52.532Z,12.871704
2019-02-15T12:52:20.443Z,12.881775
2019-02-15T12:55:48.402Z,13.052979
2019-02-15T12:59:16.393Z,12.962341
2019-02-15T13:02:44.332Z,13.022766
2019-02-15T13:06:12.281Z,13.052979
2019-02-15T13:09:41.248Z,13.042908
2019-02-15T13:13:10.378Z,13.204041
2019-02-15T13:16:38.335Z,13.425598
2019-02-15T13:20:06.361Z,13.274536
2019-02-15T13:23:34.344Z,13.294678
2019-02-15T13:27:02.253Z,13.32489
2019-02-15T13:30:30.232Z,13.32489
2019-02-15T13:33:58.198Z,13.143616
2019-02-15T13:37:27.258Z,13.133545
2019-02-15T13:40:55.204Z,13.113403
2019-02-15T13:44:23.286Z,13.173828
2019-02-15T13:47:52.351Z,13.355103
2019-02-15T13:51:20.305Z,13.486023
2019-02-15T13:54:48.304Z,13.536377
2019-02-15T13:58:16.268Z,13.536377
2019-02-15T14:01:44.237Z,13.637085
2019-02-15T14:05:12.194Z,13.596802
2019-02-15T14:08:41.172Z,13.526306
2019-02-15T14:12:09.131Z,13.566589
2019-02-15T14:15:37.108Z,13.596802
2019-02-15T14:19:05.073Z,13.747864
2019-02-15T14:22:33.053Z,13.798218
2019-02-15T14:26:01.019Z,13.465881
2019-02-15T14:29:29.818Z,13.345032
2019-02-15T14:32:57.773Z,13.133545
2019-02-15T14:36:25.707Z,13.012695
2019-02-15T14:39:53.679Z,12.962341
2019-02-15T14:43:21.671Z,12.911987
2019-02-15T14:46:49.561Z,12.932129
2019-02-15T14:50:17.495Z,12.901917
2019-02-15T14:53:45.407Z,12.811279
2019-02-15T14:57:13.322Z,12.619934
2019-02-15T15:00:41.252Z,12.549438
2019-02-15T15:04:09.145Z,12.257385
2019-02-15T15:07:37.080Z,12.136536
2019-02-15T15:11:04.980Z,11.985474
2019-02-15T15:14:33.969Z,11.733704
2019-02-15T15:18:12.343Z,11.582642
2019-02-15T15:21:35.840Z,11.381226
2019-02-15T15:25:03.861Z,11.230164
2019-02-15T15:28:32.005Z,11.199951
2019-02-15T15:32:00.459Z,11.17981
2019-02-15T15:35:28.405Z,11.079102
2019-02-15T15:38:56.401Z,10.907898
2019-02-15T15:42:24.424Z,10.67627
2019-02-15T15:45:52.418Z,10.454712
2019-02-15T15:49:20.387Z,10.354004
2019-02-15T15:52:48.429Z,10.162659
2019-02-15T15:56:16.364Z,10.021667
2019-02-15T15:59:44.509Z,9.93103
2019-02-15T16:03:12.452Z,9.729614
2019-02-15T16:06:40.365Z,9.598694
2019-02-15T16:10:08.349Z,9.518127
2019-02-15T16:13:36.257Z,9.266357
2019-02-15T16:17:04.161Z,9.014587
2019-02-15T16:20:33.064Z,8.853455
2019-02-15T16:24:01.203Z,8.833313
2019-02-15T16:27:34.349Z,8.803101
2019-02-15T16:31:03.655Z,8.631897
2019-02-15T16:34:32.443Z,8.380127
2019-02-15T16:38:00.874Z,8.128357
2019-02-15T16:41:28.817Z,8.088074
2019-02-15T16:44:56.745Z,8.017578
2019-02-15T16:48:24.657Z,7.866516
2019-02-15T16:51:55.204Z,7.54425
2019-02-15T16:55:23.436Z,7.131348
2019-02-15T16:58:51.381Z,6.809082
2019-02-15T17:02:19.297Z,6.547241
2019-02-15T17:05:47.251Z,6.305542
2019-02-15T17:09:15.169Z,6.02356
2019-02-15T17:12:43.068Z,5.77179
2019-02-15T17:16:10.986Z,5.620728
2019-02-15T17:19:38.902Z,5.540161
2019-02-15T17:23:06.816Z,5.439453
2019-02-15T17:26:34.749Z,5.318604
2019-02-15T17:30:02.675Z,5.207825
2019-02-15T17:33:30.567Z,5.157471
2019-02-15T17:36:58.478Z,5.056763
2019-02-15T17:40:27.392Z,5.006409
2019-02-15T17:43:55.310Z,4.956055
2019-02-15T17:47:23.232Z,4.784851
2019-02-15T17:50:51.155Z,4.714355
2019-02-15T17:54:19.070Z,4.724426
2019-02-15T17:57:48.078Z,4.744568
2019-02-15T18:01:15.912Z,4.664001
2019-02-15T18:04:44.108Z,4.512939
2019-02-15T18:08:12.311Z,4.452515
2019-02-15T18:11:40.219Z,4.382019
2019-02-15T18:15:09.167Z,4.27124
2019-02-15T18:18:37.156Z,4.311523
2019-02-15T18:22:05.994Z,4.573364
2019-02-15T18:25:34.275Z,4.925842
2019-02-15T18:29:02.283Z,4.996338
2019-02-15T18:32:30.287Z,4.855347
2019-02-15T18:35:58.275Z,4.976196
2019-02-15T18:39:26.285Z,5.036621
2019-02-15T18:42:54.387Z,5.177612
2019-02-15T18:46:22.372Z,5.248108
2019-02-15T18:49:51.317Z,5.338745
2019-02-15T18:53:19.283Z,5.358887
2019-02-15T18:56:47.419Z,5.368958
2019-02-15T19:00:15.451Z,5.358887
2019-02-15T19:03:43.443Z,5.217896
2019-02-15T19:07:12.395Z,5.117188
2019-02-15T19:10:42.517Z,5.056763
2019-02-15T19:14:10.693Z,4.925842
2019-02-15T19:17:38.691Z,4.64386
2019-02-15T19:21:06.695Z,4.543152
2019-02-15T19:24:34.695Z,4.664001
2019-02-15T19:28:02.660Z,4.744568
2019-02-15T19:32:53.855Z,4.754639
2019-02-15T19:36:21.811Z,4.573364
2019-02-15T19:39:50.872Z,4.482727
2019-02-15T19:43:18.868Z,4.593506
2019-02-15T19:46:46.873Z,4.694214
2019-02-15T19:50:14.860Z,4.875488
2019-02-15T19:53:42.813Z,4.815063
2019-02-15T19:57:10.976Z,4.905701
2019-02-15T20:00:39.938Z,5.1474
2019-02-15T20:04:07.950Z,5.288391
2019-02-15T20:07:36.856Z,5.238037
2019-02-15T20:11:04.833Z,5.1474
2019-02-15T20:14:32.826Z,5.157471
2019-02-15T20:18:00.812Z,5.248108
2019-02-15T20:21:28.754Z,5.318604
2019-02-15T20:24:58.657Z,5.439453
2019-02-15T20:28:26.805Z,5.389099
2019-02-15T20:31:54.864Z,5.318604
2019-02-15T20:35:22.852Z,5.26825
2019-02-15T20:38:50.824Z,5.107117
2019-02-15T20:42:18.771Z,5.1474
2019-02-15T20:45:46.756Z,5.036621
2019-02-15T20:49:15.699Z,4.855347
2019-02-15T20:52:43.834Z,4.674072
2019-02-15T20:56:12.036Z,4.543152
2019-02-15T20:59:40.042Z,4.633789
2019-02-15T21:03:08.973Z,4.825134
2019-02-15T21:06:36.941Z,5.066833
2019-02-15T21:10:04.884Z,5.238037
2019-02-15T21:13:32.838Z,5.117188
2019-02-15T21:17:00.802Z,4.885559
2019-02-15T21:20:29.409Z,4.754639
2019-02-15T21:23:57.506Z,4.77478
2019-02-15T21:27:25.440Z,4.875488
2019-02-15T21:30:53.443Z,4.885559
2019-02-15T21:34:21.389Z,4.935913
2019-02-15T21:37:50.087Z,4.825134
2019-02-15T21:41:19.141Z,4.855347
2019-02-15T21:44:47.091Z,4.976196
2019-02-15T21:48:16.119Z,4.875488
2019-02-15T21:51:44.154Z,4.875488
2019-02-15T21:55:13.353Z,4.77478
2019-02-15T21:58:41.295Z,4.744568
2019-02-15T22:02:09.295Z,4.815063
2019-02-15T22:05:37.218Z,4.855347
2019-02-15T22:09:05.164Z,4.855347
2019-02-15T22:12:33.106Z,4.875488
2019-02-15T22:16:01.052Z,4.875488
2019-02-15T22:19:28.961Z,4.875488
2019-02-15T22:22:57.867Z,4.825134
2019-02-15T22:26:25.765Z,4.935913
2019-02-15T22:29:53.685Z,4.956055
2019-02-15T22:33:22.599Z,4.855347
2019-02-15T22:36:50.510Z,4.794922
2019-02-15T22:40:19.420Z,4.744568
2019-02-15T22:43:47.366Z,4.815063
2019-02-15T22:47:15.255Z,4.935913
2019-02-15T22:50:43.202Z,4.885559
2019-02-15T22:54:11.100Z,4.845276
2019-02-15T22:57:38.984Z,4.855347
